Time;durP1;ratioP1;P1;durP2;ratioP2;P2;SDS_P1;SDS_P2;PMS_P1;PMS_P2;Temp;Humidity;BMP_temperature;BMP_pressure;BME280_temperature;BME280_humidity;BME280_pressure;Samples;Min_cycle;Max_cycle;Signal;HPM_P1;HPM_P2
2023/09/16 00:00:33;;;;;;;2.92;2.42;;;;;;;;;;5065197;28;41509;-74
2023/09/16 00:03:01;;;;;;;2.40;2.00;;;;;;;;;;5066207;28;41828;-75
2023/09/16 00:05:29;;;;;;;2.78;2.47;;;;;;;;;;5065716;28;40296;-74
2023/09/16 00:07:57;;;;;;;3.28;2.55;;;;;;;;;;5065574;28;42595;-74
2023/09/16 00:10:25;;;;;;;3.05;2.40;;;;;;;;;;5064827;28;40279;-74
2023/09/16 00:12:53;;;;;;;3.00;2.33;;;;;;;;;;5066219;28;41803;-75
2023/09/16 00:15:22;;;;;;;2.88;2.45;;;;;;;;;;5065648;28;42192;-74
2023/09/16 00:17:52;;;;;;;2.53;2.17;;;;;;;;;;5066510;28;40225;-74
2023/09/16 00:20:21;;;;;;;3.95;2.20;;;;;;;;;;5066180;28;41599;-75
2023/09/16 00:22:51;;;;;;;3.00;2.45;;;;;;;;;;5065370;28;41976;-74
2023/09/16 00:25:19;;;;;;;3.67;2.10;;;;;;;;;;5062967;28;40390;-75
2023/09/16 00:27:47;;;;;;;3.58;2.20;;;;;;;;;;5066727;28;41499;-74
2023/09/16 00:30:15;;;;;;;2.53;2.30;;;;;;;;;;5065204;28;39893;-74
2023/09/16 00:32:43;;;;;;;3.13;2.03;;;;;;;;;;5066178;28;41852;-75
2023/09/16 00:35:13;;;;;;;2.63;2.17;;;;;;;;;;5068854;28;42285;-74
2023/09/16 00:37:41;;;;;;;2.80;1.90;;;;;;;;;;5067445;28;39103;-74
2023/09/16 00:40:10;;;;;;;3.83;2.10;;;;;;;;;;5069410;28;41623;-74
2023/09/16 00:42:38;;;;;;;2.78;2.20;;;;;;;;;;5062856;28;42954;-74
2023/09/16 00:45:10;;;;;;;3.15;2.10;;;;;;;;;;5068757;28;40706;-74
2023/09/16 00:47:40;;;;;;;2.97;2.30;;;;;;;;;;5065488;28;41027;-74
2023/09/16 00:50:08;;;;;;;2.50;2.22;;;;;;;;;;5068144;28;44400;-75
2023/09/16 00:52:38;;;;;;;1.67;1.58;;;;;;;;;;5068638;28;42575;-75
2023/09/16 00:55:08;;;;;;;2.78;2.47;;;;;;;;;;5067378;28;40099;-75
2023/09/16 00:57:37;;;;;;;2.33;2.13;;;;;;;;;;5067803;28;41152;-74
2023/09/16 01:00:07;;;;;;;3.10;2.50;;;;;;;;;;5061000;28;40206;-74
2023/09/16 01:02:36;;;;;;;2.88;2.20;;;;;;;;;;5067656;28;43052;-74
2023/09/16 01:05:08;;;;;;;2.58;2.25;;;;;;;;;;5068771;28;40411;-75
2023/09/16 01:07:37;;;;;;;2.70;2.25;;;;;;;;;;5064604;28;41941;-74
2023/09/16 01:10:06;;;;;;;5.15;2.80;;;;;;;;;;5069003;28;41713;-75
2023/09/16 01:12:34;;;;;;;5.45;2.25;;;;;;;;;;5061483;28;40762;-75
2023/09/16 01:15:03;;;;;;;2.97;2.30;;;;;;;;;;5067330;28;40723;-74
2023/09/16 01:17:32;;;;;;;2.83;2.45;;;;;;;;;;5068089;28;40980;-75
2023/09/16 01:20:04;;;;;;;2.60;2.13;;;;;;;;;;5101333;28;40063;-74
2023/09/16 01:22:32;;;;;;;4.38;2.78;;;;;;;;;;5066937;28;42217;-74
2023/09/16 01:25:03;;;;;;;3.72;2.03;;;;;;;;;;5066873;28;38849;-74
2023/09/16 01:27:33;;;;;;;2.78;2.13;;;;;;;;;;5068924;28;20232;-74
2023/09/16 01:30:02;;;;;;;3.05;2.42;;;;;;;;;;5067101;28;40149;-74
2023/09/16 01:32:31;;;;;;;3.10;2.80;;;;;;;;;;5066372;28;38908;-74
2023/09/16 01:35:00;;;;;;;2.20;2.00;;;;;;;;;;5067212;28;40713;-75
2023/09/16 01:37:28;;;;;;;2.55;2.28;;;;;;;;;;5067275;28;40066;-75
2023/09/16 01:39:57;;;;;;;3.08;2.72;;;;;;;;;;5066165;28;40472;-74
2023/09/16 01:42:27;;;;;;;2.30;2.10;;;;;;;;;;5061739;28;43109;-74
2023/09/16 01:44:55;;;;;;;2.72;2.28;;;;;;;;;;5077808;28;40099;-74
2023/09/16 01:47:23;;;;;;;2.50;2.30;;;;;;;;;;5066746;28;41664;-75
2023/09/16 01:49:51;;;;;;;3.72;2.78;;;;;;;;;;5067855;28;43094;-74
2023/09/16 01:52:19;;;;;;;2.53;2.30;;;;;;;;;;5065875;28;38838;-75
2023/09/16 01:54:47;;;;;;;2.83;2.50;;;;;;;;;;5068390;28;42650;-74
2023/09/16 01:57:15;;;;;;;2.72;2.22;;;;;;;;;;5066443;28;39492;-74
2023/09/16 01:59:44;;;;;;;3.80;2.60;;;;;;;;;;5065620;28;40199;-75
2023/09/16 02:02:13;;;;;;;3.35;2.55;;;;;;;;;;5066940;28;41520;-74
2023/09/16 02:04:43;;;;;;;2.55;2.30;;;;;;;;;;5065230;28;40315;-74
2023/09/16 02:07:12;;;;;;;3.70;2.80;;;;;;;;;;5065953;28;40183;-74
2023/09/16 02:09:43;;;;;;;2.75;2.25;;;;;;;;;;5065248;28;40214;-75
2023/09/16 02:12:12;;;;;;;2.72;2.40;;;;;;;;;;5067516;28;40058;-74
2023/09/16 02:14:40;;;;;;;3.65;2.97;;;;;;;;;;5066432;28;40991;-74
2023/09/16 02:17:09;;;;;;;4.00;2.83;;;;;;;;;;5067282;28;40730;-74
2023/09/16 02:19:38;;;;;;;3.50;2.75;;;;;;;;;;5066340;28;40589;-75
2023/09/16 02:22:09;;;;;;;2.80;2.50;;;;;;;;;;5066322;28;40445;-74
2023/09/16 02:24:37;;;;;;;2.65;2.38;;;;;;;;;;5066728;28;38574;-74
2023/09/16 02:27:05;;;;;;;3.35;2.60;;;;;;;;;;5068630;28;43073;-74
2023/09/16 02:29:33;;;;;;;3.25;2.60;;;;;;;;;;5065225;28;42051;-74
2023/09/16 02:32:01;;;;;;;4.00;3.28;;;;;;;;;;5068096;28;41513;-74
2023/09/16 02:34:31;;;;;;;3.00;2.70;;;;;;;;;;5066208;28;40257;-74
2023/09/16 02:37:00;;;;;;;4.82;2.88;;;;;;;;;;5067472;28;42667;-74
2023/09/16 02:39:29;;;;;;;3.17;2.55;;;;;;;;;;5055998;28;40063;-74
2023/09/16 02:41:57;;;;;;;3.22;2.92;;;;;;;;;;5062732;28;42373;-74
2023/09/16 02:44:25;;;;;;;3.25;2.90;;;;;;;;;;5062600;28;39166;-75
2023/09/16 02:46:53;;;;;;;2.92;2.10;;;;;;;;;;5066301;28;41583;-74
2023/09/16 02:49:21;;;;;;;3.17;2.88;;;;;;;;;;5064556;28;42547;-75
2023/09/16 02:51:51;;;;;;;4.03;3.35;;;;;;;;;;5082429;28;39024;-74
2023/09/16 02:54:19;;;;;;;3.17;2.83;;;;;;;;;;5065635;28;40959;-74
2023/09/16 02:56:47;;;;;;;2.83;2.22;;;;;;;;;;5063376;28;40750;-74
2023/09/16 02:59:14;;;;;;;2.25;2.05;;;;;;;;;;5067590;28;40289;-75
2023/09/16 03:01:43;;;;;;;3.15;2.63;;;;;;;;;;5066955;28;41068;-74
2023/09/16 03:04:11;;;;;;;2.42;2.22;;;;;;;;;;5058388;28;38387;-75
2023/09/16 03:06:39;;;;;;;4.22;2.80;;;;;;;;;;5063821;28;40256;-75
2023/09/16 03:09:09;;;;;;;2.97;2.67;;;;;;;;;;5066072;28;42331;-75
2023/09/16 03:11:37;;;;;;;3.28;2.40;;;;;;;;;;5065689;28;40559;-74
2023/09/16 03:14:05;;;;;;;2.22;2.03;;;;;;;;;;5067573;28;41662;-74
2023/09/16 03:16:35;;;;;;;3.10;2.70;;;;;;;;;;5064728;28;43634;-75
2023/09/16 03:19:04;;;;;;;2.90;2.60;;;;;;;;;;5064816;28;39040;-74
2023/09/16 03:21:32;;;;;;;3.90;2.75;;;;;;;;;;5065865;28;40301;-74
2023/09/16 03:24:03;;;;;;;4.57;2.97;;;;;;;;;;5066281;28;40579;-74
2023/09/16 03:26:33;;;;;;;2.97;2.25;;;;;;;;;;5065365;28;40100;-74
2023/09/16 03:29:01;;;;;;;2.75;2.55;;;;;;;;;;5066051;28;41909;-74
2023/09/16 03:31:31;;;;;;;2.80;2.40;;;;;;;;;;5064043;28;38891;-75
2023/09/16 03:34:07;;;;;;;3.70;3.05;;;;;;;;;;5065346;28;39765;-74
2023/09/16 03:36:35;;;;;;;3.25;2.95;;;;;;;;;;5067081;28;41607;-74
2023/09/16 03:39:03;;;;;;;3.50;2.65;;;;;;;;;;5064119;28;40553;-74
2023/09/16 03:41:33;;;;;;;2.53;2.33;;;;;;;;;;5064430;28;41183;-75
2023/09/16 03:44:03;;;;;;;2.30;2.10;;;;;;;;;;5065596;28;40709;-74
2023/09/16 03:46:32;;;;;;;2.85;2.55;;;;;;;;;;5064087;28;39955;-74
2023/09/16 03:49:03;;;;;;;3.05;2.35;;;;;;;;;;5065733;28;41815;-74
2023/09/16 03:51:33;;;;;;;2.60;2.40;;;;;;;;;;5090359;28;38804;-74
2023/09/16 03:54:04;;;;;;;2.15;1.98;;;;;;;;;;5062220;28;41250;-75
2023/09/16 03:56:33;;;;;;;3.33;2.70;;;;;;;;;;5064368;28;40850;-75
2023/09/16 03:59:02;;;;;;;3.05;2.47;;;;;;;;;;5065249;28;40117;-75
2023/09/16 04:01:30;;;;;;;2.85;2.53;;;;;;;;;;5063182;28;42546;-74
2023/09/16 04:03:58;;;;;;;3.17;2.85;;;;;;;;;;5066839;28;42518;-74
2023/09/16 04:06:26;;;;;;;2.55;2.08;;;;;;;;;;5066156;28;40556;-74
2023/09/16 04:08:54;;;;;;;2.97;2.25;;;;;;;;;;5067857;28;42255;-74
2023/09/16 04:11:22;;;;;;;2.63;2.42;;;;;;;;;;5067901;28;39972;-74
2023/09/16 04:13:52;;;;;;;3.67;2.75;;;;;;;;;;5068254;28;41429;-75
2023/09/16 04:16:20;;;;;;;2.88;2.47;;;;;;;;;;5069778;28;42295;-74
2023/09/16 04:18:48;;;;;;;2.40;2.03;;;;;;;;;;5068476;28;38886;-75
2023/09/16 04:21:16;;;;;;;3.40;2.55;;;;;;;;;;5068926;28;42775;-74
2023/09/16 04:23:44;;;;;;;2.30;2.10;;;;;;;;;;5068396;28;41574;-75
2023/09/16 04:26:15;;;;;;;4.20;3.45;;;;;;;;;;5070072;28;40202;-75
2023/09/16 04:28:44;;;;;;;3.30;2.80;;;;;;;;;;5067840;28;40644;-74
2023/09/16 04:31:14;;;;;;;2.85;2.55;;;;;;;;;;5067465;28;38986;-75
2023/09/16 04:33:42;;;;;;;3.28;2.95;;;;;;;;;;5067584;28;40200;-75
2023/09/16 04:36:12;;;;;;;3.63;2.65;;;;;;;;;;5066678;28;40628;-74
2023/09/16 04:38:41;;;;;;;2.33;2.13;;;;;;;;;;5066793;28;38997;-74
2023/09/16 04:41:09;;;;;;;2.22;2.03;;;;;;;;;;5069623;28;41862;-74
2023/09/16 04:43:37;;;;;;;3.58;2.45;;;;;;;;;;5066425;28;41187;-74
2023/09/16 04:46:07;;;;;;;3.42;2.60;;;;;;;;;;5068144;28;38445;-74
2023/09/16 04:48:40;;;;;;;2.60;2.38;;;;;;;;;;5066309;28;41229;-74
2023/09/16 04:51:09;;;;;;;3.92;2.50;;;;;;;;;;5074409;28;40899;-74
2023/09/16 04:53:37;;;;;;;2.83;2.53;;;;;;;;;;5066578;28;41343;-74
2023/09/16 04:56:06;;;;;;;2.72;2.08;;;;;;;;;;5068100;28;41349;-74
2023/09/16 04:58:37;;;;;;;5.03;2.92;;;;;;;;;;5067736;28;41467;-73
2023/09/16 05:01:07;;;;;;;2.15;1.95;;;;;;;;;;5067304;28;40348;-73
2023/09/16 05:03:36;;;;;;;3.35;2.67;;;;;;;;;;5058457;28;41419;-73
2023/09/16 05:06:05;;;;;;;2.70;2.45;;;;;;;;;;5056655;28;40030;-73
2023/09/16 05:08:36;;;;;;;2.65;2.42;;;;;;;;;;5051414;28;41097;-73
2023/09/16 05:11:04;;;;;;;4.45;2.28;;;;;;;;;;5066480;28;40707;-74
2023/09/16 05:13:51;;;;;;;5.53;2.35;;;;;;;;;;5064789;28;40455;-74
2023/09/16 05:16:19;;;;;;;8.00;3.13;;;;;;;;;;5068491;28;42638;-75
2023/09/16 05:18:47;;;;;;;4.70;2.58;;;;;;;;;;5065781;28;40352;-74
2023/09/16 05:21:16;;;;;;;3.38;2.45;;;;;;;;;;5066454;28;40248;-74
2023/09/16 05:23:44;;;;;;;3.75;2.38;;;;;;;;;;5063028;28;41295;-74
2023/09/16 05:26:14;;;;;;;6.40;3.50;;;;;;;;;;5092232;28;39702;-75
2023/09/16 05:28:43;;;;;;;3.20;2.88;;;;;;;;;;5059301;28;40512;-75
2023/09/16 05:31:12;;;;;;;15.02;3.55;;;;;;;;;;5064993;28;40744;-73
2023/09/16 05:33:42;;;;;;;7.07;2.58;;;;;;;;;;5065332;28;40524;-73
2023/09/16 05:36:11;;;;;;;8.88;3.22;;;;;;;;;;5087832;28;41934;-73
2023/09/16 05:38:40;;;;;;;8.25;3.38;;;;;;;;;;5054723;28;40693;-73
2023/09/16 05:41:08;;;;;;;6.10;1.95;;;;;;;;;;5060392;28;38463;-74
2023/09/16 05:43:37;;;;;;;7.28;3.00;;;;;;;;;;5062709;28;41655;-73
2023/09/16 05:46:06;;;;;;;3.95;2.83;;;;;;;;;;5065442;28;38806;-73
2023/09/16 05:48:35;;;;;;;3.50;3.05;;;;;;;;;;5066174;28;41145;-73
2023/09/16 05:51:04;;;;;;;6.68;3.15;;;;;;;;;;5066258;28;42139;-73
2023/09/16 05:53:33;;;;;;;3.95;2.28;;;;;;;;;;5064681;28;40276;-73
2023/09/16 05:56:06;;;;;;;4.18;2.78;;;;;;;;;;5065195;28;40897;-73
2023/09/16 05:58:38;;;;;;;3.42;2.70;;;;;;;;;;5065700;28;39106;-73
2023/09/16 06:01:06;;;;;;;2.85;2.60;;;;;;;;;;5059025;28;40349;-74
2023/09/16 06:03:34;;;;;;;5.40;2.70;;;;;;;;;;5060595;28;40572;-73
2023/09/16 06:06:03;;;;;;;3.95;3.10;;;;;;;;;;5067548;28;40555;-74
2023/09/16 06:08:31;;;;;;;3.15;2.45;;;;;;;;;;5068198;28;42628;-74
2023/09/16 06:11:00;;;;;;;3.47;2.70;;;;;;;;;;5066926;28;41829;-74
2023/09/16 06:13:29;;;;;;;6.03;2.53;;;;;;;;;;5065397;28;39762;-74
2023/09/16 06:15:58;;;;;;;4.88;3.03;;;;;;;;;;5068226;28;41871;-74
2023/09/16 06:18:28;;;;;;;4.32;2.85;;;;;;;;;;5066835;28;40914;-73
2023/09/16 06:20:56;;;;;;;3.13;2.33;;;;;;;;;;5063787;28;42552;-74
2023/09/16 06:23:25;;;;;;;2.83;2.50;;;;;;;;;;5058860;28;40737;-73
2023/09/16 06:25:54;;;;;;;2.45;2.25;;;;;;;;;;5079538;28;39118;-73
2023/09/16 06:28:23;;;;;;;5.78;2.42;;;;;;;;;;5061244;28;40274;-73
2023/09/16 06:30:53;;;;;;;3.75;3.13;;;;;;;;;;5092207;27;40852;-73
2023/09/16 06:33:21;;;;;;;3.90;2.67;;;;;;;;;;5066182;28;39905;-73
2023/09/16 06:35:50;;;;;;;4.38;2.42;;;;;;;;;;5065328;28;41464;-73
2023/09/16 06:38:17;;;;;;;2.78;2.58;;;;;;;;;;5065936;28;40990;-74
2023/09/16 06:40:45;;;;;;;3.05;2.60;;;;;;;;;;5067965;28;42303;-73
2023/09/16 06:43:13;;;;;;;3.35;2.35;;;;;;;;;;5065315;28;41320;-73
2023/09/16 06:45:46;;;;;;;3.50;3.08;;;;;;;;;;5063128;28;38893;-73
2023/09/16 06:48:15;;;;;;;4.57;2.88;;;;;;;;;;5067724;28;41790;-76
2023/09/16 06:50:43;;;;;;;6.03;4.13;;;;;;;;;;5065545;28;43059;-73
2023/09/16 06:53:11;;;;;;;6.85;4.72;;;;;;;;;;5057639;28;41408;-73
2023/09/16 06:55:39;;;;;;;8.38;6.05;;;;;;;;;;5066302;28;41667;-72
2023/09/16 06:58:07;;;;;;;7.60;6.13;;;;;;;;;;5067391;28;42016;-72
2023/09/16 07:00:36;;;;;;;10.15;6.70;;;;;;;;;;5066792;28;41341;-72
2023/09/16 07:03:04;;;;;;;9.18;6.63;;;;;;;;;;5066685;28;41688;-72
2023/09/16 07:05:34;;;;;;;7.82;6.63;;;;;;;;;;5065253;28;39894;-73
2023/09/16 07:08:02;;;;;;;11.30;6.43;;;;;;;;;;5067586;28;41936;-73
2023/09/16 07:10:30;;;;;;;9.02;6.38;;;;;;;;;;5066237;28;41936;-72
2023/09/16 07:12:58;;;;;;;8.20;6.90;;;;;;;;;;5066081;28;39499;-72
2023/09/16 07:15:26;;;;;;;8.02;6.90;;;;;;;;;;5064936;28;41715;-72
2023/09/16 07:17:54;;;;;;;8.63;7.18;;;;;;;;;;5060330;28;43180;-72
2023/09/16 07:20:22;;;;;;;8.68;6.43;;;;;;;;;;5066843;28;40347;-71
2023/09/16 07:22:55;;;;;;;9.30;6.47;;;;;;;;;;5066326;28;42022;-72
2023/09/16 07:25:23;;;;;;;8.15;6.55;;;;;;;;;;5062608;28;42049;-72
2023/09/16 07:27:51;;;;;;;13.20;6.65;;;;;;;;;;5065240;28;41701;-74
2023/09/16 07:30:23;;;;;;;9.68;5.90;;;;;;;;;;5065700;28;41769;-73
2023/09/16 07:32:51;;;;;;;8.70;6.63;;;;;;;;;;5064547;28;40363;-74
2023/09/16 07:35:19;;;;;;;7.25;6.55;;;;;;;;;;5067118;28;42555;-74
2023/09/16 07:37:47;;;;;;;8.85;6.85;;;;;;;;;;5065933;28;43297;-73
2023/09/16 07:40:16;;;;;;;8.07;6.25;;;;;;;;;;5067299;28;40600;-74
2023/09/16 07:42:44;;;;;;;8.88;7.05;;;;;;;;;;5067767;28;42594;-74
2023/09/16 07:45:12;;;;;;;10.88;6.40;;;;;;;;;;5070027;28;43122;-73
2023/09/16 07:47:40;;;;;;;8.48;7.00;;;;;;;;;;5070131;28;40943;-74
2023/09/16 07:50:09;;;;;;;8.38;6.65;;;;;;;;;;5068617;28;42687;-74
2023/09/16 07:52:37;;;;;;;9.02;6.72;;;;;;;;;;5068692;28;41388;-74
2023/09/16 07:55:07;;;;;;;6.97;5.63;;;;;;;;;;5070589;28;42657;-74
2023/09/16 07:57:37;;;;;;;8.57;6.25;;;;;;;;;;5066673;28;42368;-74
2023/09/16 08:00:07;;;;;;;9.57;5.70;;;;;;;;;;5061013;28;41386;-75
2023/09/16 08:02:38;;;;;;;7.70;6.60;;;;;;;;;;5057556;28;43127;-73
2023/09/16 08:05:07;;;;;;;8.05;6.93;;;;;;;;;;5065161;28;42072;-74
2023/09/16 08:07:35;;;;;;;8.27;6.50;;;;;;;;;;5069514;28;40169;-74
2023/09/16 08:10:04;;;;;;;10.38;7.15;;;;;;;;;;5066086;28;42702;-74
2023/09/16 08:12:32;;;;;;;10.02;6.55;;;;;;;;;;5059833;28;40406;-73
2023/09/16 08:15:02;;;;;;;9.00;7.03;;;;;;;;;;5067901;28;41912;-74
2023/09/16 08:17:30;;;;;;;6.43;5.78;;;;;;;;;;5066464;28;42781;-73
2023/09/16 08:19:59;;;;;;;7.13;5.88;;;;;;;;;;5069548;28;41859;-74
2023/09/16 08:22:27;;;;;;;5.95;5.30;;;;;;;;;;5069380;28;42069;-74
2023/09/16 08:24:55;;;;;;;8.18;6.25;;;;;;;;;;5070366;28;43652;-74
2023/09/16 08:27:23;;;;;;;11.10;5.75;;;;;;;;;;5069253;28;41181;-74
2023/09/16 08:29:52;;;;;;;10.30;5.40;;;;;;;;;;5070024;28;41315;-74
2023/09/16 08:32:22;;;;;;;5.78;4.82;;;;;;;;;;5055644;28;40409;-74
2023/09/16 08:34:50;;;;;;;7.82;5.72;;;;;;;;;;5069467;28;42548;-74
2023/09/16 08:37:18;;;;;;;7.03;5.40;;;;;;;;;;5069051;28;42067;-74
2023/09/16 08:39:46;;;;;;;6.85;6.05;;;;;;;;;;5069520;28;41093;-74
2023/09/16 08:42:16;;;;;;;5.88;5.22;;;;;;;;;;5068677;28;42301;-73
2023/09/16 08:44:44;;;;;;;6.40;5.72;;;;;;;;;;5069053;28;43241;-73
2023/09/16 08:47:14;;;;;;;5.97;5.22;;;;;;;;;;5055368;28;40346;-74
2023/09/16 08:49:46;;;;;;;6.53;5.80;;;;;;;;;;5065959;28;42198;-74
2023/09/16 08:52:15;;;;;;;7.65;5.10;;;;;;;;;;5065500;28;42084;-75
2023/09/16 08:54:43;;;;;;;6.75;4.40;;;;;;;;;;5067981;28;42539;-74
2023/09/16 08:57:11;;;;;;;8.00;5.30;;;;;;;;;;5069474;28;42135;-74
2023/09/16 08:59:39;;;;;;;7.95;5.25;;;;;;;;;;5068739;28;40600;-73
2023/09/16 09:02:07;;;;;;;7.70;6.35;;;;;;;;;;5067715;28;41514;-71
2023/09/16 09:04:35;;;;;;;11.65;6.88;;;;;;;;;;5063561;28;41966;-72
2023/09/16 09:07:05;;;;;;;9.80;6.25;;;;;;;;;;5059787;28;40463;-72
2023/09/16 09:09:33;;;;;;;7.70;4.95;;;;;;;;;;5067582;28;41442;-72
2023/09/16 09:12:01;;;;;;;13.73;5.55;;;;;;;;;;5063588;28;43266;-72
2023/09/16 09:14:29;;;;;;;7.60;5.00;;;;;;;;;;5069853;28;40116;-71
2023/09/16 09:16:57;;;;;;;8.90;6.35;;;;;;;;;;5066949;28;40951;-71
2023/09/16 09:19:25;;;;;;;7.65;6.03;;;;;;;;;;5069094;28;40912;-72
2023/09/16 09:21:53;;;;;;;7.50;5.30;;;;;;;;;;5069368;28;41476;-71
2023/09/16 09:24:23;;;;;;;10.50;5.03;;;;;;;;;;5068253;28;42341;-71
2023/09/16 09:26:51;;;;;;;7.93;6.03;;;;;;;;;;5066130;28;41315;-72
2023/09/16 09:29:19;;;;;;;6.88;5.78;;;;;;;;;;5067798;28;42877;-72
2023/09/16 09:31:47;;;;;;;7.97;5.30;;;;;;;;;;5067711;28;41744;-72
2023/09/16 09:34:15;;;;;;;5.55;5.00;;;;;;;;;;5068939;28;40653;-72
2023/09/16 09:36:43;;;;;;;6.90;4.45;;;;;;;;;;5068714;28;42191;-72
2023/09/16 09:39:11;;;;;;;7.10;5.30;;;;;;;;;;5068583;28;40569;-72
2023/09/16 09:41:45;;;;;;;6.45;5.38;;;;;;;;;;5067979;28;41211;-72
2023/09/16 09:44:13;;;;;;;7.90;5.05;;;;;;;;;;5064418;28;40980;-71
2023/09/16 09:46:41;;;;;;;6.40;5.00;;;;;;;;;;5068699;28;40155;-73
2023/09/16 09:49:11;;;;;;;8.57;5.57;;;;;;;;;;5069722;28;41695;-73
2023/09/16 09:51:39;;;;;;;7.40;5.38;;;;;;;;;;5067661;28;42827;-72
2023/09/16 09:54:07;;;;;;;8.10;4.78;;;;;;;;;;5069046;28;41663;-72
2023/09/16 09:56:36;;;;;;;5.85;4.68;;;;;;;;;;5068088;28;41359;-73
2023/09/16 09:59:05;;;;;;;7.93;5.95;;;;;;;;;;5068363;28;33494;-73
2023/09/16 10:01:34;;;;;;;6.50;5.13;;;;;;;;;;5067953;28;41308;-73
2023/09/16 10:04:03;;;;;;;8.23;4.85;;;;;;;;;;5060954;28;43079;-72
2023/09/16 10:06:31;;;;;;;9.75;4.75;;;;;;;;;;5059226;28;39510;-72
2023/09/16 10:08:59;;;;;;;7.22;4.57;;;;;;;;;;5068830;28;41458;-73
2023/09/16 10:11:28;;;;;;;5.93;4.40;;;;;;;;;;5067906;28;42789;-72
2023/09/16 10:13:55;;;;;;;6.90;4.32;;;;;;;;;;5067592;28;40038;-72
2023/09/16 10:16:25;;;;;;;4.25;3.85;;;;;;;;;;5068101;28;41669;-72
2023/09/16 10:18:53;;;;;;;4.68;3.97;;;;;;;;;;5068459;28;42376;-72
2023/09/16 10:21:21;;;;;;;5.30;4.00;;;;;;;;;;5066944;28;42591;-72
2023/09/16 10:23:49;;;;;;;5.38;3.72;;;;;;;;;;5067043;28;42550;-72
2023/09/16 10:26:17;;;;;;;5.05;3.63;;;;;;;;;;5067774;28;40543;-73
2023/09/16 10:28:46;;;;;;;6.03;3.95;;;;;;;;;;5068254;28;42512;-73
2023/09/16 10:31:16;;;;;;;4.32;3.20;;;;;;;;;;5068224;28;42180;-72
2023/09/16 10:33:46;;;;;;;3.50;3.15;;;;;;;;;;5067569;28;41074;-73
2023/09/16 10:36:14;;;;;;;4.28;3.50;;;;;;;;;;5068208;28;41854;-73
2023/09/16 10:38:42;;;;;;;4.07;3.40;;;;;;;;;;5067776;28;43040;-73
2023/09/16 10:41:10;;;;;;;3.88;3.47;;;;;;;;;;5067572;28;40860;-72
2023/09/16 10:43:38;;;;;;;3.67;3.28;;;;;;;;;;5067614;28;41702;-73
2023/09/16 10:46:06;;;;;;;4.20;3.40;;;;;;;;;;5066964;28;41278;-72
2023/09/16 10:48:34;;;;;;;3.60;3.30;;;;;;;;;;5066476;28;41647;-72
2023/09/16 10:51:05;;;;;;;3.25;2.95;;;;;;;;;;5067579;28;42058;-73
2023/09/16 10:53:36;;;;;;;3.33;3.00;;;;;;;;;;5064358;28;42578;-72
2023/09/16 10:56:06;;;;;;;3.92;3.25;;;;;;;;;;5067286;28;40915;-73
2023/09/16 10:58:36;;;;;;;3.50;3.20;;;;;;;;;;5066900;28;42753;-73
2023/09/16 11:01:04;;;;;;;3.42;2.90;;;;;;;;;;5067957;28;39888;-73
2023/09/16 11:03:32;;;;;;;4.25;3.05;;;;;;;;;;5067302;28;42034;-73
2023/09/16 11:06:01;;;;;;;4.10;3.42;;;;;;;;;;5067384;28;40471;-73
2023/09/16 11:08:30;;;;;;;3.38;3.08;;;;;;;;;;5066878;28;42625;-73
2023/09/16 11:10:58;;;;;;;3.28;2.90;;;;;;;;;;5065808;28;41169;-73
2023/09/16 11:13:27;;;;;;;3.97;2.88;;;;;;;;;;5067071;28;42394;-73
2023/09/16 11:15:58;;;;;;;3.00;2.75;;;;;;;;;;5066921;28;42568;-72
2023/09/16 11:18:26;;;;;;;3.05;2.67;;;;;;;;;;5066496;28;42302;-72
2023/09/16 11:20:54;;;;;;;5.78;3.25;;;;;;;;;;5067090;28;41260;-72
2023/09/16 11:23:22;;;;;;;5.95;2.88;;;;;;;;;;5066192;28;42525;-73
2023/09/16 11:25:51;;;;;;;3.13;2.80;;;;;;;;;;5067413;28;42838;-73
2023/09/16 11:28:19;;;;;;;3.13;2.65;;;;;;;;;;5064965;28;41914;-72
2023/09/16 11:30:53;;;;;;;3.03;2.78;;;;;;;;;;5051795;28;42522;-72
2023/09/16 11:33:28;;;;;;;3.17;2.80;;;;;;;;;;5056512;28;41250;-72
2023/09/16 11:36:12;;;;;;;5.15;2.97;;;;;;;;;;5064132;28;41256;-73
2023/09/16 11:38:40;;;;;;;3.45;3.05;;;;;;;;;;5056663;28;42371;-72
2023/09/16 11:41:10;;;;;;;3.05;2.78;;;;;;;;;;5064087;28;41239;-72
2023/09/16 11:43:38;;;;;;;3.72;3.35;;;;;;;;;;5057752;28;41827;-72
2023/09/16 11:46:06;;;;;;;5.75;3.08;;;;;;;;;;5065598;28;43147;-73
2023/09/16 11:48:47;;;;;;;8.02;3.53;;;;;;;;;;5067424;28;41306;-73
2023/09/16 11:51:15;;;;;;;3.75;3.17;;;;;;;;;;5066537;28;40639;-72
2023/09/16 11:53:44;;;;;;;6.05;3.85;;;;;;;;;;5066516;28;40323;-72
2023/09/16 11:56:17;;;;;;;5.07;3.33;;;;;;;;;;5050914;28;42410;-72
2023/09/16 11:58:45;;;;;;;4.30;3.42;;;;;;;;;;5065915;28;42112;-72
2023/09/16 12:01:13;;;;;;;5.88;3.55;;;;;;;;;;5066621;28;41373;-72
2023/09/16 12:03:41;;;;;;;6.22;3.67;;;;;;;;;;5066976;28;41358;-73
2023/09/16 12:06:09;;;;;;;6.72;3.60;;;;;;;;;;5066315;28;42115;-73
2023/09/16 12:08:38;;;;;;;4.55;3.65;;;;;;;;;;5067470;28;39942;-72
2023/09/16 12:11:06;;;;;;;4.15;3.65;;;;;;;;;;5066642;28;43076;-72
2023/09/16 12:13:36;;;;;;;5.78;3.30;;;;;;;;;;5066054;28;39981;-72
2023/09/16 12:16:04;;;;;;;4.40;3.05;;;;;;;;;;5066883;28;41631;-72
2023/09/16 12:18:32;;;;;;;4.30;3.20;;;;;;;;;;5066481;28;41874;-73
2023/09/16 12:21:00;;;;;;;4.28;3.50;;;;;;;;;;5066365;28;41065;-73
2023/09/16 12:23:30;;;;;;;4.25;3.38;;;;;;;;;;5065906;28;42336;-73
2023/09/16 12:25:58;;;;;;;6.13;3.30;;;;;;;;;;5060968;28;42933;-72
2023/09/16 12:28:27;;;;;;;4.50;3.28;;;;;;;;;;5064819;28;41286;-72
2023/09/16 12:30:56;;;;;;;4.60;3.30;;;;;;;;;;5069843;28;42121;-72
2023/09/16 12:33:24;;;;;;;5.82;3.45;;;;;;;;;;5069045;28;41366;-72
2023/09/16 12:35:53;;;;;;;5.53;3.35;;;;;;;;;;5070094;28;42306;-73
2023/09/16 12:38:21;;;;;;;7.68;3.40;;;;;;;;;;5069577;28;42021;-72
2023/09/16 12:40:49;;;;;;;6.15;3.55;;;;;;;;;;5069134;28;40170;-73
2023/09/16 12:43:17;;;;;;;4.63;3.75;;;;;;;;;;5069567;28;41609;-72
2023/09/16 12:45:45;;;;;;;4.28;3.88;;;;;;;;;;5069322;28;43065;-72
2023/09/16 12:48:14;;;;;;;4.20;3.85;;;;;;;;;;5069554;28;40920;-73
2023/09/16 12:50:42;;;;;;;5.53;3.80;;;;;;;;;;5069289;28;42558;-72
2023/09/16 12:53:10;;;;;;;5.20;3.63;;;;;;;;;;5070350;28;43129;-72
2023/09/16 12:55:40;;;;;;;5.10;4.25;;;;;;;;;;5068867;28;41697;-73
2023/09/16 12:58:08;;;;;;;4.45;3.63;;;;;;;;;;5069443;28;42103;-73
2023/09/16 13:00:38;;;;;;;7.07;4.35;;;;;;;;;;5067875;28;39618;-73
2023/09/16 13:03:06;;;;;;;4.50;3.80;;;;;;;;;;5069615;28;42193;-73
2023/09/16 13:05:38;;;;;;;5.70;4.15;;;;;;;;;;5069570;28;43149;-73
2023/09/16 13:08:08;;;;;;;4.57;4.18;;;;;;;;;;5057214;28;40547;-71
2023/09/16 13:10:36;;;;;;;4.80;4.10;;;;;;;;;;5059580;28;41794;-72
2023/09/16 13:13:04;;;;;;;6.30;4.57;;;;;;;;;;5058936;28;41979;-72
2023/09/16 13:15:32;;;;;;;4.93;4.43;;;;;;;;;;5067020;28;41025;-73
2023/09/16 13:18:00;;;;;;;6.25;4.47;;;;;;;;;;5067613;28;42175;-72
2023/09/16 13:20:31;;;;;;;6.85;4.60;;;;;;;;;;5068799;28;40239;-72
2023/09/16 13:23:00;;;;;;;5.03;4.00;;;;;;;;;;5065458;28;42544;-73
2023/09/16 13:25:29;;;;;;;10.07;4.47;;;;;;;;;;5069392;28;42686;-73
2023/09/16 13:28:05;;;;;;;5.20;4.35;;;;;;;;;;5069576;28;40073;-72
2023/09/16 13:30:34;;;;;;;5.22;4.32;;;;;;;;;;5067799;28;42607;-72
2023/09/16 13:33:05;;;;;;;6.15;4.28;;;;;;;;;;5069545;28;41213;-73
2023/09/16 13:35:37;;;;;;;7.38;4.70;;;;;;;;;;5068525;28;40578;-73
2023/09/16 13:38:09;;;;;;;5.90;4.70;;;;;;;;;;5068968;28;41722;-73
2023/09/16 13:40:38;;;;;;;9.00;4.55;;;;;;;;;;5066735;28;39495;-72
2023/09/16 13:43:06;;;;;;;6.28;4.63;;;;;;;;;;5069256;28;42709;-73
2023/09/16 13:45:35;;;;;;;5.20;3.97;;;;;;;;;;5069308;28;42153;-72
2023/09/16 13:48:10;;;;;;;5.82;5.00;;;;;;;;;;5069811;28;41108;-73
2023/09/16 13:50:39;;;;;;;4.82;4.30;;;;;;;;;;5068597;28;41895;-73
2023/09/16 13:53:08;;;;;;;5.80;5.20;;;;;;;;;;5069579;28;42016;-72
2023/09/16 13:55:36;;;;;;;5.03;4.50;;;;;;;;;;5069049;28;39929;-73
2023/09/16 13:58:04;;;;;;;7.45;4.97;;;;;;;;;;5068677;28;41265;-72
2023/09/16 14:00:32;;;;;;;9.63;4.70;;;;;;;;;;5069062;28;42537;-72
2023/09/16 14:03:00;;;;;;;4.85;4.35;;;;;;;;;;5069395;28;42374;-73
2023/09/16 14:05:28;;;;;;;7.82;4.65;;;;;;;;;;5061170;28;41909;-72
2023/09/16 14:07:56;;;;;;;5.00;4.50;;;;;;;;;;5069469;28;42248;-73
2023/09/16 14:10:28;;;;;;;4.68;4.28;;;;;;;;;;5069085;28;41219;-74
2023/09/16 14:12:58;;;;;;;8.27;4.95;;;;;;;;;;5068302;28;41585;-73
2023/09/16 14:15:26;;;;;;;9.32;5.07;;;;;;;;;;5069926;28;40389;-72
2023/09/16 14:17:54;;;;;;;6.57;4.68;;;;;;;;;;5069708;28;41194;-72
2023/09/16 14:20:23;;;;;;;14.60;5.22;;;;;;;;;;5068587;28;42082;-73
2023/09/16 14:22:51;;;;;;;5.85;4.90;;;;;;;;;;5068856;28;41405;-73
2023/09/16 14:25:19;;;;;;;5.15;4.65;;;;;;;;;;5065206;28;42072;-72
2023/09/16 14:27:49;;;;;;;5.40;4.72;;;;;;;;;;5069159;28;41208;-72
2023/09/16 14:30:17;;;;;;;7.00;4.68;;;;;;;;;;5067887;28;41322;-73
2023/09/16 14:32:46;;;;;;;8.68;4.88;;;;;;;;;;5068382;28;42891;-73
2023/09/16 14:35:14;;;;;;;6.07;4.70;;;;;;;;;;5068842;28;40555;-72
2023/09/16 14:37:42;;;;;;;9.57;5.10;;;;;;;;;;5068728;28;41265;-74
2023/09/16 14:40:11;;;;;;;5.55;5.00;;;;;;;;;;5068412;28;42313;-72
2023/09/16 14:42:40;;;;;;;5.82;5.18;;;;;;;;;;5067953;28;39687;-72
2023/09/16 14:45:09;;;;;;;8.00;5.20;;;;;;;;;;5065221;28;42796;-72
2023/09/16 14:47:37;;;;;;;8.63;5.60;;;;;;;;;;5066830;28;39847;-72
2023/09/16 14:50:06;;;;;;;9.13;5.63;;;;;;;;;;5057399;28;41466;-72
2023/09/16 14:52:34;;;;;;;7.32;5.20;;;;;;;;;;5057996;28;42071;-72